createdAt,value
2022-12-11T00:01:33.222Z,32.64
2022-12-11T00:16:26.909Z,43.47
2022-12-11T00:31:13.166Z,42.02
2022-12-11T00:46:03.097Z,29.66
2022-12-11T01:00:52.035Z,36.83
2022-12-11T01:15:42.046Z,36.66
2022-12-11T01:30:31.008Z,41.64
2022-12-11T01:45:38.451Z,48.62
2022-12-11T02:00:33.295Z,44.69
2022-12-11T02:15:30.667Z,44.23
2022-12-11T02:30:24.753Z,45.97
2022-12-11T02:45:14.438Z,52.02
2022-12-11T03:00:03.392Z,50.07
2022-12-11T03:14:52.836Z,47.54
2022-12-11T03:29:42.631Z,51.67
2022-12-11T03:44:33.394Z,51.31
2022-12-11T03:59:24.061Z,50.11
2022-12-11T04:14:32.175Z,43.80
2022-12-11T04:29:26.967Z,46.09
2022-12-11T04:44:16.910Z,50.79
2022-12-11T04:59:07.317Z,49.14
2022-12-11T05:13:57.046Z,49.88
2022-12-11T05:28:46.386Z,36.99
2022-12-11T05:43:35.296Z,36.29
2022-12-11T05:58:24.839Z,46.22
2022-12-11T06:13:14.202Z,35.72
2022-12-11T06:28:03.503Z,41.50
2022-12-11T06:42:53.347Z,49.09
2022-12-11T06:57:42.665Z,36.39
2022-12-11T07:12:32.866Z,30.21
2022-12-11T07:27:22.525Z,33.70
2022-12-11T07:42:12.233Z,32.28
2022-12-11T07:57:01.679Z,45.56
2022-12-11T08:11:52.108Z,37.50
2022-12-11T08:26:42.557Z,36.06
2022-12-11T08:41:32.853Z,47.08
2022-12-11T08:56:23.041Z,34.69
2022-12-11T09:11:12.916Z,39.27
2022-12-11T09:26:08.883Z,41.58
2022-12-11T09:41:02.694Z,31.30
2022-12-11T09:56:07.261Z,34.94
2022-12-11T10:11:33.572Z,29.20
2022-12-11T10:26:30.381Z,42.91
2022-12-11T10:41:23.760Z,33.23
2022-12-11T10:56:16.794Z,34.59
2022-12-11T11:11:07.243Z,31.17
2022-12-11T11:25:57.040Z,40.20
2022-12-11T11:41:15.084Z,33.72
2022-12-11T11:56:29.220Z,34.10
2022-12-11T12:26:44.944Z,35.38
2022-12-11T12:41:36.593Z,32.93
2022-12-11T12:56:29.321Z,30.33
2022-12-11T13:11:18.810Z,27.40
2022-12-11T13:26:09.320Z,28.40
2022-12-11T13:40:58.758Z,29.53
2022-12-11T13:56:04.007Z,26.87
2022-12-11T14:10:59.939Z,27.11
2022-12-11T14:25:55.418Z,26.53
2022-12-11T14:40:47.714Z,27.20
2022-12-11T14:55:37.399Z,27.63
2022-12-11T15:10:35.695Z,30.09
2022-12-11T15:25:29.797Z,30.33
2022-12-11T15:40:19.404Z,37.24
2022-12-11T15:55:08.763Z,39.30
2022-12-11T16:24:48.788Z,35.57
2022-12-11T16:39:39.310Z,39.86
2022-12-11T16:54:29.421Z,36.20
2022-12-11T17:24:09.470Z,36.96
2022-12-11T17:38:58.234Z,42.03
2022-12-11T17:53:47.899Z,40.74
2022-12-11T18:08:38.112Z,44.08
2022-12-11T18:23:27.935Z,48.57
2022-12-11T18:38:18.038Z,45.18
2022-12-11T18:53:07.914Z,46.48
2022-12-11T19:08:18.411Z,47.17
2022-12-11T19:23:33.363Z,47.74
2022-12-11T19:38:50.688Z,52.96
2022-12-11T19:54:08.868Z,51.24
2022-12-11T20:09:04.644Z,50.51
2022-12-11T20:23:54.933Z,49.84
2022-12-11T20:38:44.268Z,50.64
2022-12-11T20:53:33.746Z,49.46
2022-12-11T21:08:22.674Z,46.59
2022-12-11T21:23:12.595Z,39.27
2022-12-11T21:38:02.044Z,46.58
2022-12-11T21:52:51.794Z,46.47
2022-12-11T22:07:41.289Z,47.26
2022-12-11T22:22:31.656Z,46.13
2022-12-11T22:37:21.569Z,47.28
2022-12-11T22:52:12.342Z,44.13
2022-12-11T23:07:02.771Z,38.88
2022-12-11T23:21:52.173Z,34.88
2022-12-11T23:36:41.225Z,35.83
2022-12-11T23:51:31.283Z,40.26
